sensor_id;sensor_type;location;lat;lon;timestamp;pressure;altitude;pressure_sealevel;temperature;humidity
64362;BME280;50685;53.346;-6.296;2023-07-13T00:01:09;101148.16;;;13.91;81.92
64362;BME280;50685;53.346;-6.296;2023-07-13T00:03:34;101139.31;;;13.89;81.73
64362;BME280;50685;53.346;-6.296;2023-07-13T00:06:10;101163.88;;;14.03;81.55
64362;BME280;50685;53.346;-6.296;2023-07-13T00:08:39;101149.06;;;13.90;81.26
64362;BME280;50685;53.346;-6.296;2023-07-13T00:11:25;101188.72;;;14.07;81.87
64362;BME280;50685;53.346;-6.296;2023-07-13T00:13:53;101154.38;;;13.91;81.73
64362;BME280;50685;53.346;-6.296;2023-07-13T00:16:25;101150.03;;;13.86;81.39
64362;BME280;50685;53.346;-6.296;2023-07-13T00:18:56;101161.66;;;13.83;81.82
64362;BME280;50685;53.346;-6.296;2023-07-13T00:21:34;101157.31;;;13.77;82.25
64362;BME280;50685;53.346;-6.296;2023-07-13T00:24:07;101147.59;;;13.75;82.09
64362;BME280;50685;53.346;-6.296;2023-07-13T00:26:40;101146.13;;;13.60;82.23
64362;BME280;50685;53.346;-6.296;2023-07-13T00:29:24;101150.41;;;13.67;82.62
64362;BME280;50685;53.346;-6.296;2023-07-13T00:31:56;101141.69;;;13.59;82.48
64362;BME280;50685;53.346;-6.296;2023-07-13T00:34:29;101179.44;;;13.81;81.93
64362;BME280;50685;53.346;-6.296;2023-07-13T00:36:58;101137.31;;;13.56;82.23
64362;BME280;50685;53.346;-6.296;2023-07-13T00:39:33;101172.59;;;13.69;82.71
64362;BME280;50685;53.346;-6.296;2023-07-13T00:42:03;101188.31;;;13.83;82.48
64362;BME280;50685;53.346;-6.296;2023-07-13T00:44:32;101153.25;;;13.59;82.46
64362;BME280;50685;53.346;-6.296;2023-07-13T00:47:05;101161.09;;;13.67;81.82
64362;BME280;50685;53.346;-6.296;2023-07-13T00:49:32;101174.25;;;13.75;81.80
64362;BME280;50685;53.346;-6.296;2023-07-13T00:52:09;101153.81;;;13.75;81.50
64362;BME280;50685;53.346;-6.296;2023-07-13T00:54:45;101191.53;;;13.99;81.14
64362;BME280;50685;53.346;-6.296;2023-07-13T00:57:19;101167.72;;;13.91;81.43
64362;BME280;50685;53.346;-6.296;2023-07-13T01:00:04;101171.38;;;13.86;80.93
64362;BME280;50685;53.346;-6.296;2023-07-13T01:02:35;101141.38;;;13.74;81.35
64362;BME280;50685;53.346;-6.296;2023-07-13T01:05:29;101137.88;;;13.72;80.98
64362;BME280;50685;53.346;-6.296;2023-07-13T01:10:25;101150.06;;;13.84;81.30
64362;BME280;50685;53.346;-6.296;2023-07-13T01:12:51;101122.03;;;13.64;81.38
64362;BME280;50685;53.346;-6.296;2023-07-13T01:15:44;101183.59;;;13.97;80.99
64362;BME280;50685;53.346;-6.296;2023-07-13T01:18:21;101152.13;;;13.70;81.38
64362;BME280;50685;53.346;-6.296;2023-07-13T01:21:06;101195.19;;;13.93;81.63
64362;BME280;50685;53.346;-6.296;2023-07-13T01:23:32;101153.09;;;13.67;81.72
64362;BME280;50685;53.346;-6.296;2023-07-13T01:26:04;101153.94;;;13.69;81.87
64362;BME280;50685;53.346;-6.296;2023-07-13T01:28:35;101123.03;;;13.59;81.27
64362;BME280;50685;53.346;-6.296;2023-07-13T01:31:07;101137.13;;;13.65;81.43
64362;BME280;50685;53.346;-6.296;2023-07-13T01:33:39;101174.91;;;13.88;81.33
64362;BME280;50685;53.346;-6.296;2023-07-13T01:36:11;101158.16;;;13.79;81.14
64362;BME280;50685;53.346;-6.296;2023-07-13T01:38:43;101126.69;;;13.55;81.12
64362;BME280;50685;53.346;-6.296;2023-07-13T01:41:27;101148.72;;;13.63;81.44
64362;BME280;50685;53.346;-6.296;2023-07-13T01:43:53;101143.41;;;13.61;81.32
64362;BME280;50685;53.346;-6.296;2023-07-13T01:46:32;101127.75;;;13.44;81.42
64362;BME280;50685;53.346;-6.296;2023-07-13T01:49:10;101184.09;;;13.71;81.97
64362;BME280;50685;53.346;-6.296;2023-07-13T01:51:35;101155.00;;;13.59;81.36
64362;BME280;50685;53.346;-6.296;2023-07-13T01:54:04;101153.25;;;13.59;81.83
64362;BME280;50685;53.346;-6.296;2023-07-13T01:56:35;101187.66;;;13.70;81.30
64362;BME280;50685;53.346;-6.296;2023-07-13T01:59:01;101123.44;;;13.39;81.44
64362;BME280;50685;53.346;-6.296;2023-07-13T02:04:15;101141.19;;;13.40;82.17
64362;BME280;50685;53.346;-6.296;2023-07-13T02:06:40;101138.53;;;13.40;82.32
64362;BME280;50685;53.346;-6.296;2023-07-13T02:09:29;101150.00;;;13.42;82.23
64362;BME280;50685;53.346;-6.296;2023-07-13T02:12:06;101163.25;;;13.46;81.98
64362;BME280;50685;53.346;-6.296;2023-07-13T02:14:35;101180.69;;;13.64;82.15
64362;BME280;50685;53.346;-6.296;2023-07-13T02:17:04;101128.81;;;13.34;81.94
64362;BME280;50685;53.346;-6.296;2023-07-13T02:19:33;101171.81;;;13.62;81.68
64362;BME280;50685;53.346;-6.296;2023-07-13T02:22:01;101143.72;;;13.46;82.11
64362;BME280;50685;53.346;-6.296;2023-07-13T02:24:29;101151.66;;;13.49;82.17
64362;BME280;50685;53.346;-6.296;2023-07-13T02:26:58;101128.78;;;13.37;81.77
64362;BME280;50685;53.346;-6.296;2023-07-13T02:29:32;101177.03;;;13.69;81.95
64362;BME280;50685;53.346;-6.296;2023-07-13T02:32:03;101116.34;;;13.34;81.76
64362;BME280;50685;53.346;-6.296;2023-07-13T02:34:31;101182.25;;;13.75;81.07
64362;BME280;50685;53.346;-6.296;2023-07-13T02:37:00;101119.88;;;13.40;81.40
64362;BME280;50685;53.346;-6.296;2023-07-13T02:39:28;101190.31;;;13.70;81.29
64362;BME280;50685;53.346;-6.296;2023-07-13T02:42:07;101141.97;;;13.45;81.58
64362;BME280;50685;53.346;-6.296;2023-07-13T02:44:43;101138.59;;;13.32;82.21
64362;BME280;50685;53.346;-6.296;2023-07-13T02:47:09;101184.28;;;13.60;82.13
64362;BME280;50685;53.346;-6.296;2023-07-13T02:49:34;101151.72;;;13.46;81.80
64362;BME280;50685;53.346;-6.296;2023-07-13T02:52:03;101173.75;;;13.54;81.87
64362;BME280;50685;53.346;-6.296;2023-07-13T02:54:34;101192.25;;;13.63;82.10
64362;BME280;50685;53.346;-6.296;2023-07-13T02:57:00;101131.53;;;13.31;82.21
64362;BME280;50685;53.346;-6.296;2023-07-13T02:59:32;101186.84;;;13.66;81.95
64362;BME280;50685;53.346;-6.296;2023-07-13T03:01:57;101149.91;;;13.46;81.75
64362;BME280;50685;53.346;-6.296;2023-07-13T03:04:26;101154.38;;;13.46;81.99
64362;BME280;50685;53.346;-6.296;2023-07-13T03:07:08;101200.25;;;13.63;82.12
64362;BME280;50685;53.346;-6.296;2023-07-13T03:09:39;101152.75;;;13.39;81.87
64362;BME280;50685;53.346;-6.296;2023-07-13T03:12:08;101152.78;;;13.34;82.54
64362;BME280;50685;53.346;-6.296;2023-07-13T03:14:34;101127.28;;;13.21;82.42
64362;BME280;50685;53.346;-6.296;2023-07-13T03:16:59;101169.63;;;13.38;83.31
64362;BME280;50685;53.346;-6.296;2023-07-13T03:19:30;101182.81;;;13.45;82.92
64362;BME280;50685;53.346;-6.296;2023-07-13T03:21:58;101155.50;;;13.32;83.08
64362;BME280;50685;53.346;-6.296;2023-07-13T03:24:24;101158.06;;;13.36;82.96
64362;BME280;50685;53.346;-6.296;2023-07-13T03:26:54;101149.25;;;13.32;82.87
64362;BME280;50685;53.346;-6.296;2023-07-13T03:29:20;101178.25;;;13.50;83.17
64362;BME280;50685;53.346;-6.296;2023-07-13T03:31:46;101182.69;;;13.53;82.83
64362;BME280;50685;53.346;-6.296;2023-07-13T03:34:12;101165.97;;;13.43;82.90
64362;BME280;50685;53.346;-6.296;2023-07-13T03:36:48;101126.53;;;13.14;82.98
64362;BME280;50685;53.346;-6.296;2023-07-13T03:39:13;101130.13;;;13.11;83.16
64362;BME280;50685;53.346;-6.296;2023-07-13T03:41:39;101151.22;;;13.24;83.68
64362;BME280;50685;53.346;-6.296;2023-07-13T03:44:05;101149.50;;;13.20;83.62
64362;BME280;50685;53.346;-6.296;2023-07-13T03:46:37;101159.16;;;13.25;83.44
64362;BME280;50685;53.346;-6.296;2023-07-13T03:49:04;101140.94;;;13.02;83.43
64362;BME280;50685;53.346;-6.296;2023-07-13T03:51:39;101174.34;;;13.18;83.94
64362;BME280;50685;53.346;-6.296;2023-07-13T03:54:10;101154.22;;;13.04;83.94
64362;BME280;50685;53.346;-6.296;2023-07-13T03:56:44;101192.00;;;13.26;84.00
64362;BME280;50685;53.346;-6.296;2023-07-13T03:59:13;101192.09;;;13.20;84.22
64362;BME280;50685;53.346;-6.296;2023-07-13T04:01:39;101158.72;;;13.00;84.41
64362;BME280;50685;53.346;-6.296;2023-07-13T04:04:04;101173.59;;;13.12;84.72
64362;BME280;50685;53.346;-6.296;2023-07-13T04:06:33;101166.47;;;13.14;84.72
64362;BME280;50685;53.346;-6.296;2023-07-13T04:09:00;101186.75;;;13.23;84.09
64362;BME280;50685;53.346;-6.296;2023-07-13T04:11:29;101172.59;;;13.19;84.22
64362;BME280;50685;53.346;-6.296;2023-07-13T04:14:05;101192.78;;;13.32;84.13
64362;BME280;50685;53.346;-6.296;2023-07-13T04:16:33;101144.34;;;13.09;84.16
64362;BME280;50685;53.346;-6.296;2023-07-13T04:19:01;101127.59;;;13.04;84.01
64362;BME280;50685;53.346;-6.296;2023-07-13T04:21:30;101191.81;;;13.38;84.12
64362;BME280;50685;53.346;-6.296;2023-07-13T04:23:56;101163.56;;;13.28;83.60
64362;BME280;50685;53.346;-6.296;2023-07-13T04:26:22;101196.19;;;13.41;83.67
64362;BME280;50685;53.346;-6.296;2023-07-13T04:28:57;101200.69;;;13.39;83.77
64362;BME280;50685;53.346;-6.296;2023-07-13T04:31:33;101173.50;;;13.18;84.20
64362;BME280;50685;53.346;-6.296;2023-07-13T04:34:01;101184.00;;;13.27;83.92
64362;BME280;50685;53.346;-6.296;2023-07-13T04:36:47;101167.19;;;13.24;83.78
64362;BME280;50685;53.346;-6.296;2023-07-13T04:39:12;101175.06;;;13.30;83.83
64362;BME280;50685;53.346;-6.296;2023-07-13T04:41:38;101181.34;;;13.26;83.89
64362;BME280;50685;53.346;-6.296;2023-07-13T04:44:24;101183.19;;;13.24;83.47
64362;BME280;50685;53.346;-6.296;2023-07-13T04:46:59;101182.31;;;13.22;83.92
64362;BME280;50685;53.346;-6.296;2023-07-13T04:49:24;101205.97;;;13.42;83.62
64362;BME280;50685;53.346;-6.296;2023-07-13T04:51:50;101162.16;;;13.07;84.56
64362;BME280;50685;53.346;-6.296;2023-07-13T04:54:16;101216.69;;;13.37;83.96
64362;BME280;50685;53.346;-6.296;2023-07-13T04:56:42;101185.09;;;13.15;84.21
64362;BME280;50685;53.346;-6.296;2023-07-13T04:59:07;101186.88;;;13.13;84.50
64362;BME280;50685;53.346;-6.296;2023-07-13T05:01:33;101229.16;;;13.35;84.56
64362;BME280;50685;53.346;-6.296;2023-07-13T05:03:59;101186.84;;;13.15;84.49
64362;BME280;50685;53.346;-6.296;2023-07-13T05:06:25;101204.38;;;13.30;84.95
64362;BME280;50685;53.346;-6.296;2023-07-13T05:08:50;101169.03;;;13.18;84.54
64362;BME280;50685;53.346;-6.296;2023-07-13T05:11:18;101213.00;;;13.44;84.54
64362;BME280;50685;53.346;-6.296;2023-07-13T05:13:44;101190.19;;;13.28;84.50
64362;BME280;50685;53.346;-6.296;2023-07-13T05:16:09;101199.88;;;13.32;84.80
64362;BME280;50685;53.346;-6.296;2023-07-13T05:18:35;101196.34;;;13.31;84.35
64362;BME280;50685;53.346;-6.296;2023-07-13T05:21:03;101190.13;;;13.31;84.46
64362;BME280;50685;53.346;-6.296;2023-07-13T05:23:30;101219.91;;;13.56;84.51
64362;BME280;50685;53.346;-6.296;2023-07-13T05:25:57;101194.44;;;13.41;83.96
64362;BME280;50685;53.346;-6.296;2023-07-13T05:28:22;101169.66;;;13.33;84.60
64362;BME280;50685;53.346;-6.296;2023-07-13T05:30:49;101232.84;;;13.78;84.30
64362;BME280;50685;53.346;-6.296;2023-07-13T05:33:16;101213.28;;;13.77;84.14
64362;BME280;50685;53.346;-6.296;2023-07-13T05:35:42;101194.63;;;13.77;84.10
64362;BME280;50685;53.346;-6.296;2023-07-13T05:38:07;101176.81;;;13.79;83.69
64362;BME280;50685;53.346;-6.296;2023-07-13T05:40:33;101202.94;;;14.06;83.37
64362;BME280;50685;53.346;-6.296;2023-07-13T05:42:58;101182.53;;;14.05;83.27
64362;BME280;50685;53.346;-6.296;2023-07-13T05:45:24;101220.31;;;14.25;83.22
64362;BME280;50685;53.346;-6.296;2023-07-13T05:47:55;101211.63;;;14.17;83.25
64362;BME280;50685;53.346;-6.296;2023-07-13T05:50:21;101226.56;;;14.24;82.98
64362;BME280;50685;53.346;-6.296;2023-07-13T05:52:52;101226.56;;;14.24;83.41
64362;BME280;50685;53.346;-6.296;2023-07-13T05:55:30;101218.72;;;14.17;83.42
64362;BME280;50685;53.346;-6.296;2023-07-13T05:58:00;101226.47;;;14.29;83.41
64362;BME280;50685;53.346;-6.296;2023-07-13T06:00:26;101222.81;;;14.35;83.33
64362;BME280;50685;53.346;-6.296;2023-07-13T06:02:56;101209.56;;;14.30;82.77
64362;BME280;50685;53.346;-6.296;2023-07-13T06:05:30;101235.16;;;14.40;83.08
64362;BME280;50685;53.346;-6.296;2023-07-13T06:08:04;101219.38;;;14.29;83.05
64362;BME280;50685;53.346;-6.296;2023-07-13T06:10:35;101203.53;;;14.20;83.15
64362;BME280;50685;53.346;-6.296;2023-07-13T06:13:01;101206.25;;;14.19;83.23
64362;BME280;50685;53.346;-6.296;2023-07-13T06:15:38;101207.13;;;14.19;82.97
64362;BME280;50685;53.346;-6.296;2023-07-13T06:18:11;101206.22;;;14.20;83.25
64362;BME280;50685;53.346;-6.296;2023-07-13T06:20:37;101210.56;;;14.24;82.98
64362;BME280;50685;53.346;-6.296;2023-07-13T06:23:02;101209.69;;;14.24;82.85
64362;BME280;50685;53.346;-6.296;2023-07-13T06:25:28;101195.72;;;14.12;82.83
64362;BME280;50685;53.346;-6.296;2023-07-13T06:27:53;101253.66;;;14.48;82.63
64362;BME280;50685;53.346;-6.296;2023-07-13T06:30:19;101256.38;;;14.46;82.66
64362;BME280;50685;53.346;-6.296;2023-07-13T06:32:52;101227.38;;;14.28;82.38
64362;BME280;50685;53.346;-6.296;2023-07-13T06:35:21;101221.91;;;14.34;82.35
64362;BME280;50685;53.346;-6.296;2023-07-13T06:37:46;101255.16;;;14.60;82.06
64362;BME280;50685;53.346;-6.296;2023-07-13T06:40:12;101259.47;;;14.67;81.75
64362;BME280;50685;53.346;-6.296;2023-07-13T06:42:39;101225.78;;;14.60;81.40
64362;BME280;50685;53.346;-6.296;2023-07-13T06:45:05;101238.03;;;14.72;81.13
64362;BME280;50685;53.346;-6.296;2023-07-13T06:47:31;101211.63;;;14.58;80.87
64362;BME280;50685;53.346;-6.296;2023-07-13T06:50:01;101223.81;;;14.71;80.44
64362;BME280;50685;53.346;-6.296;2023-07-13T06:52:31;101201.59;;;14.69;80.08
64362;BME280;50685;53.346;-6.296;2023-07-13T06:54:56;101255.88;;;15.07;79.99
64362;BME280;50685;53.346;-6.296;2023-07-13T06:57:24;101252.16;;;15.15;79.45
64362;BME280;50685;53.346;-6.296;2023-07-13T06:59:53;101268.09;;;15.19;79.08
64362;BME280;50685;53.346;-6.296;2023-07-13T07:02:19;101229.22;;;15.06;78.94
64362;BME280;50685;53.346;-6.296;2023-07-13T07:04:47;101256.31;;;15.26;78.83
64362;BME280;50685;53.346;-6.296;2023-07-13T07:07:15;101265.16;;;15.29;78.76
64362;BME280;50685;53.346;-6.296;2023-07-13T07:09:44;101267.72;;;15.33;78.67
64362;BME280;50685;53.346;-6.296;2023-07-13T07:12:15;101273.88;;;15.37;78.20
64362;BME280;50685;53.346;-6.296;2023-07-13T07:14:41;101239.56;;;15.20;78.31
64362;BME280;50685;53.346;-6.296;2023-07-13T07:17:09;101254.63;;;15.24;78.13
64362;BME280;50685;53.346;-6.296;2023-07-13T07:19:41;101222.97;;;15.05;77.86
64362;BME280;50685;53.346;-6.296;2023-07-13T07:22:12;101218.59;;;15.03;77.82
64362;BME280;50685;53.346;-6.296;2023-07-13T07:24:47;101224.78;;;15.05;78.02
64362;BME280;50685;53.346;-6.296;2023-07-13T07:27:15;101273.84;;;15.38;78.21
64362;BME280;50685;53.346;-6.296;2023-07-13T07:29:41;101266.00;;;15.31;78.18
64362;BME280;50685;53.346;-6.296;2023-07-13T07:32:07;101243.84;;;15.27;77.88
64362;BME280;50685;53.346;-6.296;2023-07-13T07:34:32;101220.81;;;15.21;77.98
64362;BME280;50685;53.346;-6.296;2023-07-13T07:37:02;101263.06;;;15.41;77.25
64362;BME280;50685;53.346;-6.296;2023-07-13T07:39:27;101263.63;;;15.54;77.70
64362;BME280;50685;53.346;-6.296;2023-07-13T07:41:58;101271.38;;;15.65;77.54
64362;BME280;50685;53.346;-6.296;2023-07-13T07:44:27;101281.66;;;15.81;76.90
64362;BME280;50685;53.346;-6.296;2023-07-13T07:47:03;101269.28;;;15.77;76.03
64362;BME280;50685;53.346;-6.296;2023-07-13T07:49:29;101252.13;;;15.87;76.27
64362;BME280;50685;53.346;-6.296;2023-07-13T07:52:07;101249.34;;;15.90;75.28
64362;BME280;50685;53.346;-6.296;2023-07-13T07:54:35;101283.66;;;16.07;75.46
64362;BME280;50685;53.346;-6.296;2023-07-13T07:57:15;101289.97;;;16.04;75.26
64362;BME280;50685;53.346;-6.296;2023-07-13T07:59:52;101257.59;;;15.82;75.01
64362;BME280;50685;53.346;-6.296;2023-07-13T08:02:20;101291.22;;;15.91;75.58
64362;BME280;50685;53.346;-6.296;2023-07-13T08:04:46;101291.16;;;15.93;76.08
64362;BME280;50685;53.346;-6.296;2023-07-13T08:07:18;101252.22;;;15.82;75.79
64362;BME280;50685;53.346;-6.296;2023-07-13T08:09:45;101259.16;;;15.89;75.55
64362;BME280;50685;53.346;-6.296;2023-07-13T08:12:12;101293.50;;;16.06;75.41
64362;BME280;50685;53.346;-6.296;2023-07-13T08:14:37;101258.16;;;15.94;75.60
64362;BME280;50685;53.346;-6.296;2023-07-13T08:17:09;101281.69;;;16.14;75.49
64362;BME280;50685;53.346;-6.296;2023-07-13T08:19:38;101246.13;;;16.09;74.84
64362;BME280;50685;53.346;-6.296;2023-07-13T08:22:07;101253.81;;;16.21;74.65
64362;BME280;50685;53.346;-6.296;2023-07-13T08:24:32;101235.06;;;16.21;74.65
64362;BME280;50685;53.346;-6.296;2023-07-13T08:26:58;101269.06;;;16.49;74.69
64362;BME280;50685;53.346;-6.296;2023-07-13T08:29:24;101271.19;;;16.67;74.13
64362;BME280;50685;53.346;-6.296;2023-07-13T08:31:49;101295.41;;;16.94;73.82
64362;BME280;50685;53.346;-6.296;2023-07-13T08:34:15;101302.41;;;16.98;73.11
64362;BME280;50685;53.346;-6.296;2023-07-13T08:36:44;101245.97;;;16.75;72.78
64362;BME280;50685;53.346;-6.296;2023-07-13T08:39:09;101293.25;;;17.06;71.68
64362;BME280;50685;53.346;-6.296;2023-07-13T08:41:35;101270.44;;;16.94;71.30
64362;BME280;50685;53.346;-6.296;2023-07-13T08:44:02;101301.94;;;17.14;70.47
64362;BME280;50685;53.346;-6.296;2023-07-13T08:46:35;101278.72;;;17.13;70.04
64362;BME280;50685;53.346;-6.296;2023-07-13T08:49:10;101278.72;;;17.13;69.44
64362;BME280;50685;53.346;-6.296;2023-07-13T08:54:27;101269.88;;;17.11;68.81
64362;BME280;50685;53.346;-6.296;2023-07-13T08:56:53;101248.53;;;17.08;68.36
64362;BME280;50685;53.346;-6.296;2023-07-13T08:59:22;101284.03;;;17.43;67.75
64362;BME280;50685;53.346;-6.296;2023-07-13T09:10:09;101271.56;;;19.55;61.80
64362;BME280;50685;53.346;-6.296;2023-07-13T09:13:07;101270.56;;;19.99;60.15
64362;BME280;50685;53.346;-6.296;2023-07-13T09:15:52;101266.34;;;20.52;59.03
64362;BME280;50685;53.346;-6.296;2023-07-13T09:18:51;101263.72;;;20.70;55.11
64362;BME280;50685;53.346;-6.296;2023-07-13T09:21:39;101244.72;;;20.54;56.06
64362;BME280;50685;53.346;-6.296;2023-07-13T09:24:33;101266.22;;;20.36;54.89
64362;BME280;50685;53.346;-6.296;2023-07-13T09:27:02;101226.97;;;19.91;56.88
64362;BME280;50685;53.346;-6.296;2023-07-13T09:29:37;101274.41;;;19.94;56.01
64362;BME280;50685;53.346;-6.296;2023-07-13T09:32:09;101267.28;;;19.50;56.52
64362;BME280;50685;53.346;-6.296;2023-07-13T09:34:36;101272.44;;;19.34;58.31
64362;BME280;50685;53.346;-6.296;2023-07-13T09:37:07;101231.19;;;18.90;58.41
64362;BME280;50685;53.346;-6.296;2023-07-13T09:39:44;101253.34;;;18.73;58.65
64362;BME280;50685;53.346;-6.296;2023-07-13T09:42:31;101260.06;;;18.61;59.81
64362;BME280;50685;53.346;-6.296;2023-07-13T09:45:00;101286.13;;;18.59;60.20
64362;BME280;50685;53.346;-6.296;2023-07-13T09:47:35;101247.13;;;18.25;60.75
64362;BME280;50685;53.346;-6.296;2023-07-13T09:50:10;101272.41;;;18.43;60.26
64362;BME280;50685;53.346;-6.296;2023-07-13T09:52:47;101246.91;;;18.32;59.60
64362;BME280;50685;53.346;-6.296;2023-07-13T09:55:32;101287.41;;;18.97;58.68
64362;BME280;50685;53.346;-6.296;2023-07-13T09:58:19;101236.75;;;19.30;57.44
64362;BME280;50685;53.346;-6.296;2023-07-13T10:01:00;101234.13;;;20.11;55.11
64362;BME280;50685;53.346;-6.296;2023-07-13T10:03:38;101244.50;;;20.78;53.98
64362;BME280;50685;53.346;-6.296;2023-07-13T10:06:46;101222.22;;;21.11;50.72
64362;BME280;50685;53.346;-6.296;2023-07-13T10:09:18;101248.34;;;21.45;50.50
64362;BME280;50685;53.346;-6.296;2023-07-13T10:15:20;101241.16;;;22.14;46.03
64362;BME280;50685;53.346;-6.296;2023-07-13T10:17:47;101226.28;;;21.90;45.60
64362;BME280;50685;53.346;-6.296;2023-07-13T10:20:22;101261.41;;;21.72;45.66
64362;BME280;50685;53.346;-6.296;2023-07-13T10:28:41;101257.41;;;21.97;46.14
64362;BME280;50685;53.346;-6.296;2023-07-13T10:31:24;101278.16;;;21.61;45.11
64362;BME280;50685;53.346;-6.296;2023-07-13T10:34:02;101238.72;;;21.05;45.16
64362;BME280;50685;53.346;-6.296;2023-07-13T10:36:44;101243.53;;;20.98;46.43
64362;BME280;50685;53.346;-6.296;2023-07-13T10:39:19;101249.22;;;20.92;47.24
64362;BME280;50685;53.346;-6.296;2023-07-13T10:41:49;101236.94;;;21.23;46.83
64362;BME280;50685;53.346;-6.296;2023-07-13T10:44:23;101241.06;;;21.82;44.66
64362;BME280;50685;53.346;-6.296;2023-07-13T10:46:52;101279.97;;;22.13;43.99
64362;BME280;50685;53.346;-6.296;2023-07-13T10:49:31;101280.06;;;22.28;44.99
64362;BME280;50685;53.346;-6.296;2023-07-13T10:58:37;101284.06;;;21.50;41.99
64362;BME280;50685;53.346;-6.296;2023-07-13T11:01:18;101262.97;;;21.41;43.89
64362;BME280;50685;53.346;-6.296;2023-07-13T11:04:12;101279.28;;;21.57;43.64
64362;BME280;50685;53.346;-6.296;2023-07-13T11:06:47;101273.91;;;21.38;44.71
64362;BME280;50685;53.346;-6.296;2023-07-13T11:12:01;101264.53;;;21.10;44.67
64362;BME280;50685;53.346;-6.296;2023-07-13T11:14:37;101247.91;;;21.00;45.37
64362;BME280;50685;53.346;-6.296;2023-07-13T11:22:48;101244.84;;;20.89;44.41
64362;BME280;50685;53.346;-6.296;2023-07-13T11:25:34;101275.56;;;21.23;43.89
64362;BME280;50685;53.346;-6.296;2023-07-13T11:30:49;101228.78;;;21.59;41.84
64362;BME280;50685;53.346;-6.296;2023-07-13T11:33:53;101250.59;;;21.55;41.65
64362;BME280;50685;53.346;-6.296;2023-07-13T11:36:23;101267.97;;;21.49;42.36
64362;BME280;50685;53.346;-6.296;2023-07-13T11:39:19;101267.47;;;21.23;43.07
64362;BME280;50685;53.346;-6.296;2023-07-13T11:44:25;101235.19;;;20.47;45.00
64362;BME280;50685;53.346;-6.296;2023-07-13T11:46:58;101263.94;;;20.46;45.81
64362;BME280;50685;53.346;-6.296;2023-07-13T11:49:31;101277.63;;;20.42;46.42
64362;BME280;50685;53.346;-6.296;2023-07-13T11:52:00;101252.94;;;20.32;46.77
64362;BME280;50685;53.346;-6.296;2023-07-13T11:54:30;101251.84;;;20.36;46.62
64362;BME280;50685;53.346;-6.296;2023-07-13T11:56:59;101229.44;;;20.35;46.36
64362;BME280;50685;53.346;-6.296;2023-07-13T11:59:28;101258.00;;;20.59;46.17
64362;BME280;50685;53.346;-6.296;2023-07-13T12:01:58;101269.59;;;20.80;46.35
64362;BME280;50685;53.346;-6.296;2023-07-13T12:04:42;101234.22;;;20.67;46.20
64362;BME280;50685;53.346;-6.296;2023-07-13T12:07:19;101224.63;;;20.80;45.86
64362;BME280;50685;53.346;-6.296;2023-07-13T12:09:45;101265.53;;;21.08;46.03
64362;BME280;50685;53.346;-6.296;2023-07-13T12:12:22;101265.25;;;20.95;45.88
64362;BME280;50685;53.346;-6.296;2023-07-13T12:14:53;101220.56;;;20.72;45.77
64362;BME280;50685;53.346;-6.296;2023-07-13T12:17:28;101260.38;;;21.03;45.88
64362;BME280;50685;53.346;-6.296;2023-07-13T12:19:54;101233.53;;;21.00;46.04
64362;BME280;50685;53.346;-6.296;2023-07-13T12:22:26;101218.50;;;21.13;45.41
64362;BME280;50685;53.346;-6.296;2023-07-13T12:24:56;101222.94;;;21.14;45.36
64362;BME280;50685;53.346;-6.296;2023-07-13T12:27:34;101269.53;;;21.18;45.40
64362;BME280;50685;53.346;-6.296;2023-07-13T12:30:03;101218.66;;;20.74;45.53
64362;BME280;50685;53.346;-6.296;2023-07-13T12:32:31;101236.63;;;20.73;45.69
64362;BME280;50685;53.346;-6.296;2023-07-13T12:35:16;101232.19;;;20.72;45.56
64362;BME280;50685;53.346;-6.296;2023-07-13T12:37:43;101256.63;;;20.88;45.59
64362;BME280;50685;53.346;-6.296;2023-07-13T12:40:24;101220.69;;;20.68;45.46
64362;BME280;50685;53.346;-6.296;2023-07-13T12:42:54;101267.56;;;21.02;45.63
64362;BME280;50685;53.346;-6.296;2023-07-13T12:45:24;101267.94;;;21.14;44.79
64362;BME280;50685;53.346;-6.296;2023-07-13T12:48:04;101234.78;;;20.93;44.48
64362;BME280;50685;53.346;-6.296;2023-07-13T12:50:41;101241.31;;;21.06;44.71
64362;BME280;50685;53.346;-6.296;2023-07-13T12:53:28;101211.34;;;20.95;44.32
64362;BME280;50685;53.346;-6.296;2023-07-13T12:55:58;101216.13;;;21.07;44.99
64362;BME280;50685;53.346;-6.296;2023-07-13T12:58:34;101221.28;;;21.12;45.35
64362;BME280;50685;53.346;-6.296;2023-07-13T13:01:02;101233.91;;;21.29;45.49
64362;BME280;50685;53.346;-6.296;2023-07-13T13:03:49;101197.13;;;20.91;45.77
64362;BME280;50685;53.346;-6.296;2023-07-13T13:06:25;101235.16;;;21.04;45.49
64362;BME280;50685;53.346;-6.296;2023-07-13T13:08:53;101194.22;;;20.96;45.17
64362;BME280;50685;53.346;-6.296;2023-07-13T13:11:32;101231.22;;;21.29;44.93
64362;BME280;50685;53.346;-6.296;2023-07-13T13:13:58;101208.47;;;20.98;45.02
64362;BME280;50685;53.346;-6.296;2023-07-13T13:21:47;101219.34;;;21.68;44.33
64362;BME280;50685;53.346;-6.296;2023-07-13T13:24:15;101180.75;;;21.66;43.57
64362;BME280;50685;53.346;-6.296;2023-07-13T13:26:44;101179.13;;;21.79;43.43
64362;BME280;50685;53.346;-6.296;2023-07-13T13:29:23;101223.31;;;22.28;42.74
64362;BME280;50685;53.346;-6.296;2023-07-13T13:35:26;101186.88;;;22.35;41.20
64362;BME280;50685;53.346;-6.296;2023-07-13T13:38:01;101175.00;;;22.39;41.72
64362;BME280;50685;53.346;-6.296;2023-07-13T13:40:38;101206.38;;;22.58;41.45
64362;BME280;50685;53.346;-6.296;2023-07-13T13:43:22;101194.88;;;22.21;41.73
64362;BME280;50685;53.346;-6.296;2023-07-13T13:45:59;101194.72;;;22.08;42.38
64362;BME280;50685;53.346;-6.296;2023-07-13T13:48:35;101186.13;;;21.99;42.30
64362;BME280;50685;53.346;-6.296;2023-07-13T13:51:16;101162.13;;;21.77;42.29
64362;BME280;50685;53.346;-6.296;2023-07-13T13:53:46;101217.06;;;21.94;41.50
64362;BME280;50685;53.346;-6.296;2023-07-13T13:56:22;101184.53;;;21.79;42.25
64362;BME280;50685;53.346;-6.296;2023-07-13T13:58:48;101162.81;;;21.65;42.29